Time;durP1;ratioP1;P1;durP2;ratioP2;P2;SDS_P1;SDS_P2;PMS_P1;PMS_P2;Temp;Humidity;BMP_temperature;BMP_pressure;BME280_temperature;BME280_humidity;BME280_pressure;Samples;Min_cycle;Max_cycle;Signal;HPM_P1;HPM_P2
2022/06/08 00:00:50;;;;;;;0.32;0.32;;;11.30;83.20;;;;;;5089667;28;20369;-80
2022/06/08 00:03:23;;;;;;;0.93;0.40;;;11.30;84.30;;;;;;5089913;28;20936;-82
2022/06/08 00:05:50;;;;;;;0.90;0.22;;;11.40;82.10;;;;;;5089452;28;20361;-81
2022/06/08 00:08:18;;;;;;;0.40;0.30;;;11.40;80.60;;;;;;5071441;28;20397;-81
2022/06/08 00:10:45;;;;;;;0.40;0.40;;;11.60;80.50;;;;;;5089419;28;20361;-81
2022/06/08 00:13:13;;;;;;;1.70;0.50;;;11.60;79.90;;;;;;5089401;28;20388;-83
2022/06/08 00:15:41;;;;;;;1.25;0.28;;;11.60;82.80;;;;;;5071169;28;20910;-81
2022/06/08 00:18:10;;;;;;;0.77;0.40;;;11.90;81.20;;;;;;5089531;28;20372;-83
2022/06/08 00:20:39;;;;;;;0.20;0.20;;;11.90;79.00;;;;;;5088867;28;20450;-81
2022/06/08 00:23:07;;;;;;;0.20;0.20;;;12.00;76.80;;;;;;5089540;28;20372;-80
2022/06/08 00:25:34;;;;;;;0.38;0.20;;;12.00;76.40;;;;;;5089294;28;20393;-81
2022/06/08 00:28:01;;;;;;;0.28;0.20;;;12.10;75.50;;;;;;5089304;28;20390;-81
2022/06/08 00:30:28;;;;;;;0.32;0.20;;;12.10;75.30;;;;;;5089047;28;20368;-81
2022/06/08 00:32:55;;;;;;;0.65;0.20;;;12.20;74.80;;;;;;5089061;28;20399;-80
2022/06/08 00:35:23;;;;;;;0.50;0.30;;;12.30;73.00;;;;;;5088734;28;20820;-81
2022/06/08 00:37:50;;;;;;;0.50;0.30;;;12.40;73.60;;;;;;5089277;28;20952;-81
2022/06/08 00:40:20;;;;;;;1.20;0.25;;;12.50;75.60;;;;;;5088995;28;20380;-79
2022/06/08 00:42:48;;;;;;;0.50;0.22;;;12.60;72.40;;;;;;5088927;28;20376;-81
2022/06/08 00:45:19;;;;;;;0.35;0.20;;;12.70;71.80;;;;;;5088915;28;20387;-81
2022/06/08 00:47:59;;;;;;;0.30;0.28;;;12.70;71.70;;;;;;5088863;28;20364;-80
2022/06/08 00:50:55;;;;;;;1.13;0.22;;;12.70;71.20;;;;;;5088957;28;20382;-84
2022/06/08 00:53:59;;;;;;;0.55;0.20;;;12.70;70.30;;;;;;5084113;28;20399;-84
2022/06/08 00:56:34;;;;;;;0.25;0.17;;;12.80;69.90;;;;;;5084153;28;20412;-80
2022/06/08 00:59:05;;;;;;;0.70;0.30;;;12.80;71.50;;;;;;5088902;28;20364;-80
2022/06/08 01:01:32;;;;;;;0.32;0.17;;;12.80;68.40;;;;;;5088683;28;20369;-88
2022/06/08 01:04:17;;;;;;;0.20;0.20;;;12.80;69.80;;;;;;5088693;28;20369;-80
2022/06/08 01:06:49;;;;;;;0.20;0.20;;;12.80;69.30;;;;;;5088554;28;20391;-81
2022/06/08 01:09:32;;;;;;;0.40;0.30;;;12.80;69.30;;;;;;5070675;28;20368;-82
2022/06/08 01:12:03;;;;;;;0.30;0.20;;;12.90;68.70;;;;;;5089195;28;20376;-82
2022/06/08 01:14:30;;;;;;;0.20;0.20;;;12.90;66.80;;;;;;5070349;28;20954;-82
2022/06/08 01:17:04;;;;;;;0.40;0.20;;;13.10;69.60;;;;;;5088524;28;20821;-86
2022/06/08 01:19:36;;;;;;;0.40;0.27;;;13.20;69.40;;;;;;5088438;28;20380;-81
2022/06/08 01:22:05;;;;;;;0.20;0.20;;;13.20;67.10;;;;;;5088453;28;20856;-80
2022/06/08 01:24:34;;;;;;;0.70;0.10;;;13.30;66.70;;;;;;5088309;28;20382;-84
2022/06/08 01:27:32;;;;;;;0.30;0.10;;;13.50;65.80;;;;;;5088492;28;20376;-84
2022/06/08 01:30:14;;;;;;;0.32;0.20;;;13.60;64.80;;;;;;4987484;28;20377;-79
2022/06/08 01:32:59;;;;;;;0.95;0.20;;;13.60;64.10;;;;;;4989186;28;20849;-85
2022/06/08 01:35:32;;;;;;;0.50;0.20;;;13.80;63.10;;;;;;4999581;28;20540;-79
2022/06/08 01:38:28;;;;;;;0.25;0.13;;;13.70;62.40;;;;;;5010643;28;20385;-86
2022/06/08 01:41:04;;;;;;;0.70;0.20;;;13.70;62.60;;;;;;5011061;28;20367;-80
2022/06/08 01:43:59;;;;;;;2.03;0.50;;;13.70;63.30;;;;;;5010246;28;20375;-82
2022/06/08 01:46:38;;;;;;;0.20;0.20;;;13.80;61.30;;;;;;5010320;28;20379;-79
2022/06/08 01:49:40;;;;;;;0.10;0.10;;;13.90;60.40;;;;;;5010271;28;20377;-86
2022/06/08 01:52:22;;;;;;;1.17;0.20;;;14.00;61.20;;;;;;4932852;29;20408;-85
2022/06/08 01:55:01;;;;;;;1.58;0.30;;;13.90;61.00;;;;;;4933355;29;20462;-88
2022/06/08 01:57:52;;;;;;;1.23;0.30;;;13.90;60.70;;;;;;4933277;29;20393;-87
2022/06/08 02:00:28;;;;;;;0.40;0.20;;;13.80;60.40;;;;;;4933266;29;20410;-83
2022/06/08 02:03:23;;;;;;;1.93;0.30;;;13.90;61.40;;;;;;4932789;29;20394;-87
2022/06/08 02:06:02;;;;;;;0.47;0.20;;;13.90;60.70;;;;;;4932526;29;20574;-83
2022/06/08 02:08:32;;;;;;;0.30;0.30;;;14.10;61.90;;;;;;4993724;28;20441;-89
2022/06/08 02:11:14;;;;;;;0.70;0.30;;;14.10;60.50;;;;;;5010511;28;20394;-81
2022/06/08 02:13:58;;;;;;;0.50;0.30;;;14.10;60.20;;;;;;5010259;28;20417;-89
2022/06/08 02:16:50;;;;;;;0.40;0.30;;;14.20;61.00;;;;;;5010227;28;20382;-88
2022/06/08 02:19:38;;;;;;;1.10;0.30;;;14.40;60.90;;;;;;5002675;28;20383;-80
2022/06/08 02:22:15;;;;;;;2.10;0.30;;;14.50;60.50;;;;;;5010115;28;20371;-87
2022/06/08 02:24:54;;;;;;;1.05;0.38;;;14.40;60.30;;;;;;5010366;28;20367;-84
2022/06/08 02:27:36;;;;;;;2.13;0.40;;;14.30;60.40;;;;;;5015801;28;20890;-88
2022/06/08 02:30:11;;;;;;;0.77;0.30;;;14.50;61.40;;;;;;5091505;28;20365;-84
2022/06/08 02:35:42;;;;;;;0.68;0.22;;;14.50;59.50;;;;;;5091510;28;20958;-87
2022/06/08 02:38:14;;;;;;;0.32;0.20;;;14.40;59.60;;;;;;5092181;28;20710;-80
2022/06/08 02:40:52;;;;;;;1.00;0.20;;;14.30;58.60;;;;;;5091867;28;20369;-81
2022/06/08 02:43:56;;;;;;;0.77;0.40;;;14.40;59.70;;;;;;5091487;28;20390;-85
2022/06/08 02:46:30;;;;;;;0.20;0.20;;;14.50;58.00;;;;;;5077848;28;20461;-82
2022/06/08 02:49:02;;;;;;;0.68;0.20;;;13.50;58.00;;;;;;5091607;28;20406;-80
2022/06/08 02:51:31;;;;;;;0.30;0.30;;;14.60;58.90;;;;;;5091285;28;20852;-80
2022/06/08 02:54:05;;;;;;;0.52;0.20;;;14.60;59.00;;;;;;5091342;28;20434;-82
2022/06/08 02:56:38;;;;;;;1.23;0.40;;;14.70;58.00;;;;;;5091281;28;20443;-88
2022/06/08 02:59:34;;;;;;;1.20;0.37;;;14.70;58.20;;;;;;5091222;28;20439;-82
2022/06/08 03:02:19;;;;;;;0.47;0.30;;;14.60;58.30;;;;;;5091522;28;20725;-80
2022/06/08 03:05:14;;;;;;;1.38;0.38;;;14.50;59.50;;;;;;5091539;28;20369;-81
2022/06/08 03:07:49;;;;;;;1.20;0.30;;;14.50;60.50;;;;;;5090954;28;20365;-81
2022/06/08 03:10:18;;;;;;;0.60;0.20;;;14.60;58.40;;;;;;5090783;28;20430;-81
2022/06/08 03:13:03;;;;;;;0.93;0.20;;;14.70;57.30;;;;;;5090783;28;20859;-88
2022/06/08 03:15:31;;;;;;;2.28;0.82;;;14.80;57.80;;;;;;5091057;28;20377;-87
2022/06/08 03:17:58;;;;;;;0.95;0.30;;;14.90;57.60;;;;;;5090752;28;20361;-82
2022/06/08 03:20:27;;;;;;;0.55;0.22;;;15.00;57.10;;;;;;5090566;28;20411;-83
2022/06/08 03:22:54;;;;;;;0.50;0.30;;;15.00;56.20;;;;;;5090531;28;20361;-86
2022/06/08 03:25:23;;;;;;;1.10;0.30;;;14.80;56.90;;;;;;5090569;28;20467;-87
2022/06/08 03:27:50;;;;;;;1.05;0.30;;;14.90;57.70;;;;;;5090405;28;20433;-84
2022/06/08 03:30:18;;;;;;;0.90;0.28;;;15.00;57.00;;;;;;5090188;28;20467;-86
2022/06/08 03:32:46;;;;;;;1.10;0.30;;;15.00;54.90;;;;;;5090172;28;20502;-81
2022/06/08 03:35:13;;;;;;;0.95;0.20;;;15.00;55.70;;;;;;5090020;28;20827;-86
2022/06/08 03:37:41;;;;;;;0.50;0.20;;;15.00;53.80;;;;;;5090039;28;20891;-84
2022/06/08 03:40:09;;;;;;;0.47;0.20;;;15.00;54.70;;;;;;5090255;28;20453;-86
2022/06/08 03:42:36;;;;;;;0.45;0.30;;;14.90;54.20;;;;;;5090714;28;20368;-83
2022/06/08 03:45:04;;;;;;;0.30;0.17;;;14.90;54.30;;;;;;5090188;28;20376;-86
2022/06/08 03:47:39;;;;;;;4.93;0.43;;;14.90;56.30;;;;;;5090075;28;20565;-86
2022/06/08 03:50:10;;;;;;;0.40;0.20;;;14.90;56.50;;;;;;5090030;28;20429;-87
2022/06/08 03:52:43;;;;;;;0.88;0.30;;;15.00;53.10;;;;;;5089864;28;20371;-87
2022/06/08 03:55:12;;;;;;;1.60;0.40;;;14.90;54.20;;;;;;5089189;28;20924;-81
2022/06/08 03:57:44;;;;;;;1.85;0.30;;;14.90;54.50;;;;;;5089670;28;20741;-87
2022/06/08 04:00:12;;;;;;;0.33;0.20;;;15.00;55.60;;;;;;5089647;28;20371;-85
2022/06/08 04:02:40;;;;;;;0.20;0.20;;;14.90;53.40;;;;;;5089550;28;20368;-85
2022/06/08 04:05:09;;;;;;;0.55;0.20;;;15.00;53.10;;;;;;5089636;28;20385;-81
2022/06/08 04:07:36;;;;;;;0.60;0.30;;;15.00;52.70;;;;;;5089399;28;20408;-83
2022/06/08 04:10:04;;;;;;;1.05;0.20;;;15.00;52.70;;;;;;5089287;28;20790;-81
2022/06/08 04:12:32;;;;;;;0.60;0.20;;;14.90;52.30;;;;;;5089532;28;20408;-85
2022/06/08 04:14:59;;;;;;;0.43;0.20;;;14.80;52.20;;;;;;5089402;28;20408;-86
2022/06/08 04:17:26;;;;;;;0.57;0.30;;;14.80;51.00;;;;;;5089333;28;20368;-88
2022/06/08 04:19:53;;;;;;;1.83;0.60;;;14.80;52.00;;;;;;5089396;28;20434;-88
2022/06/08 04:22:22;;;;;;;9.32;7.47;;;14.80;52.00;;;;;;5089338;28;20408;-87
2022/06/08 04:24:49;;;;;;;6.80;4.53;;;14.90;52.60;;;;;;5089317;28;20377;-85
2022/06/08 04:27:17;;;;;;;1.05;0.45;;;14.90;51.90;;;;;;5089262;28;20391;-81
2022/06/08 04:29:44;;;;;;;1.27;0.30;;;14.90;52.80;;;;;;5089276;28;20388;-86
2022/06/08 04:32:11;;;;;;;2.30;0.40;;;14.80;52.20;;;;;;5089549;28;20369;-80
2022/06/08 04:34:43;;;;;;;6.25;0.50;;;14.80;53.00;;;;;;5088859;28;20396;-88
2022/06/08 04:37:10;;;;;;;0.93;0.20;;;14.80;54.10;;;;;;5089223;28;20432;-86
2022/06/08 04:39:37;;;;;;;2.00;0.40;;;14.80;54.40;;;;;;5089336;28;20415;-84
2022/06/08 04:42:06;;;;;;;1.13;0.30;;;14.90;54.90;;;;;;5088819;28;20458;-83
2022/06/08 04:44:33;;;;;;;0.80;0.30;;;14.90;54.60;;;;;;5088993;28;20373;-81
2022/06/08 04:47:00;;;;;;;0.65;0.30;;;14.90;54.00;;;;;;5088928;28;20360;-86
2022/06/08 04:49:27;;;;;;;0.35;0.22;;;15.20;54.80;;;;;;5088764;28;20384;-86
2022/06/08 04:51:54;;;;;;;0.70;0.25;;;15.50;54.30;;;;;;5088910;28;20387;-82
2022/06/08 04:54:21;;;;;;;1.10;0.30;;;15.70;53.50;;;;;;5088780;28;20396;-81
2022/06/08 04:56:49;;;;;;;0.63;0.30;;;15.80;53.00;;;;;;5088716;28;20925;-81
2022/06/08 04:59:16;;;;;;;0.80;0.20;;;15.80;53.00;;;;;;5088977;28;20433;-81
2022/06/08 05:01:43;;;;;;;0.40;0.30;;;15.60;53.80;;;;;;5089257;28;20369;-87
2022/06/08 05:04:10;;;;;;;1.30;0.30;;;15.40;53.30;;;;;;5088638;28;20369;-85
2022/06/08 05:06:37;;;;;;;1.75;0.40;;;15.30;54.60;;;;;;5087558;28;20373;-82
2022/06/08 05:09:05;;;;;;;0.30;0.30;;;15.10;54.80;;;;;;5088554;28;20376;-85
2022/06/08 05:11:32;;;;;;;0.77;0.40;;;14.90;55.10;;;;;;5088542;28;20789;-84
2022/06/08 05:13:59;;;;;;;2.28;0.40;;;14.80;54.90;;;;;;5088338;28;20384;-85
2022/06/08 05:16:26;;;;;;;1.95;0.28;;;14.70;55.60;;;;;;5088801;28;20380;-82
2022/06/08 05:18:53;;;;;;;0.50;0.30;;;14.60;55.80;;;;;;5088703;28;20364;-85
2022/06/08 05:21:20;;;;;;;1.57;0.30;;;14.60;55.80;;;;;;5088499;28;20459;-85
2022/06/08 05:23:48;;;;;;;1.52;0.32;;;14.60;55.60;;;;;;5088251;28;20364;-85
2022/06/08 05:26:15;;;;;;;0.90;0.32;;;14.60;55.40;;;;;;5088262;28;20453;-85
2022/06/08 05:28:43;;;;;;;1.70;0.60;;;14.50;54.80;;;;;;5089107;28;20474;-82
2022/06/08 05:31:11;;;;;;;1.10;0.50;;;14.50;56.60;;;;;;5088263;28;20584;-86
2022/06/08 05:33:39;;;;;;;3.72;2.40;;;14.40;56.70;;;;;;5088650;28;20417;-81
2022/06/08 05:36:07;;;;;;;1.17;0.80;;;14.40;56.50;;;;;;5088619;28;20407;-84
2022/06/08 05:38:34;;;;;;;6.75;6.05;;;14.30;57.00;;;;;;5088443;28;20408;-80
2022/06/08 05:41:02;;;;;;;1.70;1.48;;;14.30;57.60;;;;;;5088095;28;20475;-80
2022/06/08 05:43:29;;;;;;;1.25;0.40;;;14.20;57.10;;;;;;5088390;28;20375;-82
2022/06/08 05:45:56;;;;;;;1.02;0.40;;;14.20;57.20;;;;;;5088210;28;20372;-79
2022/06/08 05:48:23;;;;;;;0.88;0.38;;;14.10;57.00;;;;;;5088167;28;20376;-79
2022/06/08 05:50:51;;;;;;;1.20;0.40;;;14.20;57.40;;;;;;5088149;28;20445;-81
2022/06/08 05:53:18;;;;;;;0.77;0.40;;;14.20;56.60;;;;;;5088236;28;20419;-80
2022/06/08 05:55:45;;;;;;;0.90;0.40;;;14.00;56.80;;;;;;5088003;28;20844;-84
2022/06/08 05:58:13;;;;;;;0.60;0.30;;;13.90;57.40;;;;;;5088394;28;20376;-81
2022/06/08 06:00:42;;;;;;;1.30;0.50;;;13.70;58.50;;;;;;5088690;28;20376;-83
2022/06/08 06:03:10;;;;;;;1.15;0.40;;;13.60;59.20;;;;;;5087919;28;20860;-84
2022/06/08 06:05:39;;;;;;;0.75;0.50;;;13.50;58.90;;;;;;5087837;28;20382;-84
2022/06/08 06:08:08;;;;;;;1.33;0.40;;;13.50;59.50;;;;;;5087636;28;20426;-85
2022/06/08 06:10:37;;;;;;;2.00;0.50;;;13.40;59.50;;;;;;5087736;28;20375;-84
2022/06/08 06:13:05;;;;;;;0.52;0.40;;;13.40;60.10;;;;;;5087931;28;20379;-80
2022/06/08 06:15:32;;;;;;;0.60;0.38;;;13.20;60.00;;;;;;5088953;28;20389;-81
2022/06/08 06:18:00;;;;;;;1.00;0.40;;;13.20;60.10;;;;;;5091759;28;20458;-82
2022/06/08 06:20:27;;;;;;;1.60;0.50;;;13.00;60.20;;;;;;5092383;28;20408;-80
2022/06/08 06:22:54;;;;;;;1.05;0.40;;;13.00;61.20;;;;;;5092479;28;20435;-86
2022/06/08 06:25:22;;;;;;;1.00;0.40;;;12.90;61.60;;;;;;5091785;28;20396;-86
2022/06/08 06:27:49;;;;;;;0.70;0.30;;;12.80;61.50;;;;;;5091463;28;20923;-81
2022/06/08 06:30:17;;;;;;;0.73;0.40;;;12.70;62.30;;;;;;5091748;28;20844;-83
2022/06/08 06:32:46;;;;;;;0.55;0.50;;;12.60;62.20;;;;;;5091454;28;20374;-86
2022/06/08 06:35:19;;;;;;;0.68;0.57;;;12.50;62.80;;;;;;5091302;28;20404;-85
2022/06/08 06:37:46;;;;;;;1.83;1.60;;;12.40;62.90;;;;;;5091592;28;20455;-82
2022/06/08 06:40:13;;;;;;;1.27;1.13;;;12.30;64.10;;;;;;5091378;28;20455;-87
2022/06/08 06:42:41;;;;;;;1.27;1.17;;;12.20;64.00;;;;;;5091427;28;20375;-83
2022/06/08 06:45:09;;;;;;;0.60;0.50;;;12.00;64.30;;;;;;5091382;28;20402;-86
2022/06/08 06:47:36;;;;;;;1.58;0.55;;;11.90;64.30;;;;;;5091099;28;20395;-86
2022/06/08 06:50:06;;;;;;;1.27;0.98;;;11.90;65.20;;;;;;5091064;28;20883;-89
2022/06/08 06:52:33;;;;;;;0.87;0.70;;;11.80;64.60;;;;;;5091058;28;20378;-88
2022/06/08 06:55:00;;;;;;;1.77;0.60;;;11.80;64.80;;;;;;5090933;28;20434;-84
2022/06/08 06:57:27;;;;;;;0.90;0.45;;;11.80;65.40;;;;;;5090967;28;20361;-84
2022/06/08 06:59:54;;;;;;;1.25;1.10;;;11.70;65.50;;;;;;5090735;28;20368;-83
2022/06/08 07:02:22;;;;;;;1.40;1.20;;;11.60;65.60;;;;;;5090709;28;20372;-81
2022/06/08 07:04:49;;;;;;;1.35;0.98;;;11.50;65.90;;;;;;5090668;28;20410;-85
2022/06/08 07:07:17;;;;;;;0.80;0.80;;;11.50;66.10;;;;;;5090482;28;20725;-86
2022/06/08 07:09:44;;;;;;;2.30;1.20;;;11.40;66.40;;;;;;5091262;28;20385;-83
2022/06/08 07:12:13;;;;;;;1.23;1.08;;;11.30;66.70;;;;;;5090478;28;20364;-84
2022/06/08 07:14:41;;;;;;;1.08;0.70;;;11.20;67.50;;;;;;5072584;28;20613;-81
2022/06/08 07:17:08;;;;;;;1.75;0.80;;;11.10;67.40;;;;;;5090984;28;20447;-87
2022/06/08 07:19:37;;;;;;;2.80;0.90;;;11.10;68.20;;;;;;5090374;28;20408;-80
2022/06/08 07:22:05;;;;;;;1.73;0.73;;;11.10;68.40;;;;;;5090513;28;20418;-84
2022/06/08 07:24:33;;;;;;;1.65;0.80;;;11.00;68.10;;;;;;5090803;28;20396;-82
2022/06/08 07:27:02;;;;;;;1.57;0.80;;;10.90;68.10;;;;;;5090387;28;20365;-80
2022/06/08 07:29:30;;;;;;;1.80;1.30;;;10.90;68.50;;;;;;5089519;28;20380;-83
2022/06/08 07:31:57;;;;;;;1.77;1.63;;;10.80;69.30;;;;;;5090474;28;20369;-82
2022/06/08 07:34:25;;;;;;;1.50;0.90;;;10.80;68.80;;;;;;5091906;28;20746;-79
2022/06/08 07:36:52;;;;;;;5.30;4.80;;;10.70;69.00;;;;;;5090024;28;20380;-84
2022/06/08 07:39:20;;;;;;;3.47;2.25;;;10.60;69.40;;;;;;5089882;28;20380;-85
2022/06/08 07:41:49;;;;;;;7.57;6.77;;;10.60;69.40;;;;;;5089953;28;20392;-87
2022/06/08 07:44:20;;;;;;;8.65;6.93;;;10.60;69.60;;;;;;5089687;28;20390;-84
2022/06/08 07:46:48;;;;;;;2.83;1.88;;;10.50;69.90;;;;;;5089942;28;20375;-84
2022/06/08 07:49:37;;;;;;;2.03;1.50;;;10.50;70.30;;;;;;5089563;28;20732;-85
2022/06/08 07:52:08;;;;;;;1.45;0.85;;;10.50;70.30;;;;;;5089824;28;20361;-82
2022/06/08 07:54:36;;;;;;;1.10;1.00;;;10.40;70.50;;;;;;5090817;28;20868;-88
2022/06/08 07:57:17;;;;;;;2.13;1.10;;;10.40;71.00;;;;;;5090201;28;20769;-79
2022/06/08 07:59:45;;;;;;;2.15;1.25;;;10.40;71.30;;;;;;5072172;28;20468;-86
2022/06/08 08:02:12;;;;;;;1.80;1.10;;;10.30;72.00;;;;;;5089338;28;20444;-83
2022/06/08 08:04:39;;;;;;;1.93;1.00;;;10.30;72.40;;;;;;5089577;28;20379;-86
2022/06/08 08:07:07;;;;;;;2.53;1.20;;;10.30;72.00;;;;;;5089992;28;20388;-95
2022/06/08 08:09:34;;;;;;;2.00;1.00;;;10.30;72.80;;;;;;5091152;28;20844;-82
2022/06/08 08:12:02;;;;;;;1.95;1.20;;;10.20;72.70;;;;;;5089730;28;20474;-82
2022/06/08 08:14:32;;;;;;;1.88;1.13;;;10.10;73.10;;;;;;5089951;28;20404;-79
2022/06/08 08:16:59;;;;;;;1.60;1.00;;;10.10;74.60;;;;;;5089166;28;20377;-84
2022/06/08 08:19:26;;;;;;;1.70;1.00;;;10.00;74.30;;;;;;5089522;28;20380;-86
2022/06/08 08:21:56;;;;;;;1.50;0.90;;;9.90;74.40;;;;;;5090462;28;20376;-81
2022/06/08 08:24:23;;;;;;;1.45;0.90;;;9.90;74.80;;;;;;5089314;28;20851;-81
2022/06/08 08:26:51;;;;;;;2.05;0.93;;;9.80;75.40;;;;;;5089239;28;20373;-83
2022/06/08 08:29:19;;;;;;;1.40;0.90;;;9.70;76.10;;;;;;5089004;28;20856;-83
2022/06/08 08:31:47;;;;;;;1.55;1.00;;;9.70;76.50;;;;;;5089127;28;20369;-82
2022/06/08 08:34:14;;;;;;;1.77;1.10;;;9.60;76.90;;;;;;5088976;28;20396;-84
2022/06/08 08:36:41;;;;;;;4.23;2.20;;;9.60;77.40;;;;;;5088962;28;20388;-84
2022/06/08 08:39:09;;;;;;;3.08;1.92;;;9.40;78.20;;;;;;5089006;28;20423;-85
2022/06/08 08:44:38;;;;;;;2.20;1.25;;;9.20;79.60;;;;;;5089456;28;20408;-82
2022/06/08 08:47:20;;;;;;;2.23;1.40;;;9.10;80.70;;;;;;5089123;28;20454;-86
2022/06/08 08:50:12;;;;;;;1.52;1.17;;;8.90;82.60;;;;;;5089805;28;20439;-82
2022/06/08 08:52:48;;;;;;;1.27;0.80;;;8.80;84.40;;;;;;5088753;28;20429;-83
2022/06/08 08:55:46;;;;;;;2.67;1.10;;;8.70;85.70;;;;;;5088980;28;20404;-86
2022/06/08 08:58:25;;;;;;;1.98;1.23;;;8.70;86.50;;;;;;5089021;28;20405;-83
2022/06/08 09:00:54;;;;;;;3.08;1.20;;;8.60;87.20;;;;;;5088764;28;20713;-85
2022/06/08 09:03:39;;;;;;;1.95;1.40;;;8.60;88.50;;;;;;5089030;28;20724;-84
2022/06/08 09:06:18;;;;;;;1.70;1.23;;;8.50;89.30;;;;;;5088992;28;20720;-80
2022/06/08 09:08:51;;;;;;;2.13;1.60;;;8.50;89.70;;;;;;5070490;28;20435;-86
2022/06/08 09:11:21;;;;;;;1.58;1.10;;;8.50;90.10;;;;;;5088892;28;20753;-83
2022/06/08 09:13:49;;;;;;;2.35;1.13;;;8.50;90.40;;;;;;5090280;28;20392;-80
2022/06/08 09:16:40;;;;;;;2.13;1.10;;;8.40;90.50;;;;;;5074058;28;20387;-84
2022/06/08 09:19:22;;;;;;;3.25;1.30;;;8.30;91.40;;;;;;5088682;28;20360;-82
2022/06/08 09:21:55;;;;;;;2.15;1.10;;;8.10;91.80;;;;;;5088266;28;20376;-81
2022/06/08 09:24:27;;;;;;;2.50;1.55;;;8.00;92.80;;;;;;5088584;28;20372;-83
2022/06/08 09:27:06;;;;;;;4.15;2.22;;;7.80;93.70;;;;;;5088280;28;20392;-83
2022/06/08 09:29:46;;;;;;;6.78;4.40;;;7.70;94.60;;;;;;5088377;28;20369;-82
2022/06/08 09:32:50;;;;;;;4.60;3.30;;;7.60;95.40;;;;;;5088332;28;20455;-84
2022/06/08 09:35:26;;;;;;;3.88;2.40;;;7.50;96.50;;;;;;4995198;28;20806;-85
2022/06/08 09:38:11;;;;;;;2.95;2.22;;;7.40;97.00;;;;;;5007101;28;20401;-82
2022/06/08 09:40:57;;;;;;;2.83;2.30;;;7.40;97.30;;;;;;5006512;28;20402;-85
2022/06/08 09:43:50;;;;;;;4.05;3.10;;;7.30;98.20;;;;;;5007961;28;20375;-82
2022/06/08 09:53:03;;;;;;;5.65;3.00;;;7.00;99.90;;;;;;5007065;28;20381;-85
2022/06/08 09:55:39;;;;;;;3.28;2.20;;;6.90;99.90;;;;;;5010622;28;20422;-86
2022/06/08 09:58:24;;;;;;;5.00;2.20;;;6.80;99.90;;;;;;5010666;28;20398;-85
2022/06/08 10:01:11;;;;;;;2.70;2.05;;;6.70;99.90;;;;;;5010553;28;20371;-85
2022/06/08 10:04:10;;;;;;;5.55;3.35;;;6.60;99.90;;;;;;5009859;28;20429;-88
2022/06/08 10:06:45;;;;;;;4.50;2.80;;;6.50;99.90;;;;;;5009839;28;20398;-85
2022/06/08 10:09:31;;;;;;;3.72;2.70;;;6.50;99.90;;;;;;5010446;28;20790;-86
2022/06/08 10:12:22;;;;;;;4.35;3.42;;;6.40;99.90;;;;;;5088407;28;20721;-85
2022/06/08 10:15:27;;;;;;;6.60;3.10;;;6.40;99.90;;;;;;5092200;28;20428;-84
2022/06/08 10:18:14;;;;;;;4.50;2.90;;;6.40;99.90;;;;;;5092376;28;20364;-86
2022/06/08 10:20:55;;;;;;;3.55;2.80;;;6.30;99.90;;;;;;5009797;28;20746;-81
2022/06/08 10:23:48;;;;;;;4.68;3.25;;;6.30;99.90;;;;;;5009805;28;20391;-81
2022/06/08 10:26:36;;;;;;;3.85;2.80;;;6.20;99.90;;;;;;5009767;28;20372;-81
2022/06/08 10:29:27;;;;;;;2.97;2.33;;;6.20;99.90;;;;;;5010115;28;20390;-80
2022/06/08 10:31:57;;;;;;;3.33;2.20;;;6.30;99.90;;;;;;5009834;28;20866;-86
2022/06/08 10:34:31;;;;;;;3.47;2.33;;;6.30;99.90;;;;;;5009721;28;20460;-82
2022/06/08 10:37:07;;;;;;;2.97;2.50;;;6.40;99.90;;;;;;5009505;28;20429;-85
2022/06/08 10:39:38;;;;;;;2.67;2.10;;;6.40;99.90;;;;;;5009500;28;20383;-86
2022/06/08 10:42:40;;;;;;;3.92;2.60;;;6.40;99.90;;;;;;5009602;28;20402;-81
2022/06/08 10:45:26;;;;;;;11.90;10.07;;;6.30;99.90;;;;;;5009837;28;20444;-86
2022/06/08 10:48:03;;;;;;;10.75;8.30;;;6.30;99.90;;;;;;5009174;28;20483;-83
2022/06/08 10:50:34;;;;;;;16.33;11.82;;;6.20;99.90;;;;;;5009209;28;20412;-87
2022/06/08 10:56:28;;;;;;;20.33;14.98;;;6.20;99.90;;;;;;4936823;29;20410;-83
2022/06/08 10:59:07;;;;;;;22.77;17.05;;;6.10;99.90;;;;;;5026742;28;20846;-86
2022/06/08 11:01:55;;;;;;;19.52;14.05;;;6.00;99.90;;;;;;5029410;28;20741;-85
2022/06/08 11:04:32;;;;;;;18.95;13.10;;;6.00;99.90;;;;;;5027585;28;20906;-81
2022/06/08 11:07:16;;;;;;;13.30;10.60;;;6.00;99.90;;;;;;5028591;28;20809;-81
2022/06/08 11:09:53;;;;;;;14.40;11.80;;;6.00;99.90;;;;;;5030020;28;20932;-86
2022/06/08 11:12:46;;;;;;;8.57;6.30;;;6.00;99.90;;;;;;5028564;28;20382;-84
2022/06/08 11:15:41;;;;;;;8.20;5.82;;;6.00;99.90;;;;;;5028206;28;20401;-81
2022/06/08 11:18:35;;;;;;;13.27;9.65;;;6.00;99.90;;;;;;5028409;28;20796;-84
2022/06/08 11:21:14;;;;;;;9.52;7.50;;;5.90;99.90;;;;;;5028056;28;20880;-85
2022/06/08 11:24:02;;;;;;;8.88;6.88;;;5.80;99.90;;;;;;5028340;28;20390;-82
2022/06/08 11:27:15;;;;;;;7.38;6.15;;;5.80;99.90;;;;;;5028452;28;20416;-85
2022/06/08 11:29:48;;;;;;;7.10;5.22;;;5.70;99.90;;;;;;4934134;29;20395;-80
2022/06/08 11:32:34;;;;;;;7.18;5.40;;;5.60;99.90;;;;;;4960079;28;20373;-85
2022/06/08 11:35:22;;;;;;;7.00;4.97;;;5.60;99.90;;;;;;4988316;28;20934;-87
2022/06/08 11:37:59;;;;;;;6.20;4.63;;;5.50;99.90;;;;;;4989027;28;20452;-80
2022/06/08 11:40:30;;;;;;;4.83;4.00;;;5.40;99.90;;;;;;4988565;28;20385;-82
2022/06/08 11:43:15;;;;;;;5.35;4.40;;;5.30;99.90;;;;;;4988647;28;20388;-82
2022/06/08 11:45:56;;;;;;;5.20;3.90;;;5.30;99.90;;;;;;4988465;28;20393;-81
2022/06/08 11:48:27;;;;;;;6.63;3.95;;;5.20;99.90;;;;;;4988579;28;20428;-80
2022/06/08 11:51:00;;;;;;;6.35;3.97;;;5.20;99.90;;;;;;4988274;28;20407;-82
2022/06/08 11:53:31;;;;;;;5.22;3.40;;;5.10;99.90;;;;;;4988448;28;20396;-82
2022/06/08 11:56:19;;;;;;;4.82;3.25;;;5.10;99.90;;;;;;4988434;28;20544;-81
2022/06/08 11:58:50;;;;;;;4.55;3.38;;;5.00;99.90;;;;;;4988910;28;20468;-85
2022/06/08 12:01:27;;;;;;;4.75;3.50;;;5.00;99.90;;;;;;4988274;28;20431;-87
2022/06/08 12:04:08;;;;;;;4.10;3.70;;;4.90;99.90;;;;;;4988276;28;20477;-80
2022/06/08 12:06:44;;;;;;;16.52;12.50;;;4.90;99.90;;;;;;5043172;28;20387;-82
2022/06/08 12:09:26;;;;;;;21.58;14.93;;;4.80;99.90;;;;;;5089795;28;20389;-84
2022/06/08 12:12:21;;;;;;;19.58;15.15;;;4.80;99.90;;;;;;5089793;28;20365;-80
2022/06/08 12:14:48;;;;;;;11.37;7.77;;;4.80;99.90;;;;;;5087884;28;20399;-87
2022/06/08 12:17:25;;;;;;;8.45;5.85;;;4.90;99.90;;;;;;5087911;28;20383;-81
2022/06/08 12:19:58;;;;;;;9.10;5.90;;;4.90;99.90;;;;;;5089784;28;20375;-87
2022/06/08 12:22:39;;;;;;;10.30;5.45;;;5.00;99.90;;;;;;5089322;28;20372;-80
2022/06/08 12:25:24;;;;;;;8.35;4.35;;;5.00;99.90;;;;;;5089319;28;20836;-81
2022/06/08 12:28:15;;;;;;;7.33;3.93;;;5.00;99.90;;;;;;5089432;28;20388;-85
2022/06/08 12:30:47;;;;;;;5.30;4.00;;;5.00;99.90;;;;;;5089093;28;20429;-81
2022/06/08 12:33:17;;;;;;;6.68;5.40;;;5.00;99.90;;;;;;5089552;28;20459;-80
2022/06/08 12:35:53;;;;;;;10.80;7.05;;;4.80;99.90;;;;;;5088968;28;20741;-85
2022/06/08 12:38:26;;;;;;;8.10;5.47;;;4.60;99.90;;;;;;5088964;28;20572;-80
2022/06/08 12:41:12;;;;;;;7.80;5.55;;;4.60;99.90;;;;;;5089295;28;20773;-86
2022/06/08 12:43:49;;;;;;;7.50;5.30;;;4.50;99.90;;;;;;5089185;28;20403;-80
2022/06/08 12:46:27;;;;;;;7.88;5.18;;;4.50;99.90;;;;;;5088935;28;20365;-80
2022/06/08 12:49:16;;;;;;;7.65;5.50;;;4.50;99.90;;;;;;5088773;28;20917;-83
2022/06/08 12:51:50;;;;;;;6.80;5.70;;;4.40;99.90;;;;;;5089014;28;20379;-84
2022/06/08 12:54:24;;;;;;;6.93;5.43;;;4.40;99.90;;;;;;5089252;28;20922;-81
2022/06/08 12:56:55;;;;;;;7.68;5.70;;;4.40;99.90;;;;;;5089037;28;20368;-81
2022/06/08 12:59:23;;;;;;;7.45;5.80;;;4.40;99.90;;;;;;5088680;28;20419;-81
2022/06/08 13:01:51;;;;;;;7.77;6.03;;;4.40;99.90;;;;;;5088611;28;20400;-81
2022/06/08 13:04:24;;;;;;;10.15;7.55;;;4.30;99.90;;;;;;5088574;28;20372;-85
2022/06/08 13:06:51;;;;;;;10.38;7.60;;;4.30;99.90;;;;;;5071013;28;20379;-84
2022/06/08 13:09:20;;;;;;;10.70;7.80;;;4.40;99.90;;;;;;5088565;28;20380;-86
2022/06/08 13:11:54;;;;;;;9.50;7.60;;;4.40;99.90;;;;;;5088519;28;20394;-83
2022/06/08 13:14:21;;;;;;;10.57;7.68;;;4.50;99.90;;;;;;5088931;28;20896;-81
2022/06/08 13:16:49;;;;;;;11.63;7.82;;;4.40;99.90;;;;;;5088259;28;20372;-80
2022/06/08 13:19:18;;;;;;;11.43;7.97;;;4.40;99.90;;;;;;5088307;28;20418;-80
2022/06/08 13:21:47;;;;;;;9.82;7.70;;;4.40;99.90;;;;;;5088383;28;20364;-85
2022/06/08 13:24:17;;;;;;;8.85;7.50;;;4.30;99.90;;;;;;5088552;28;20380;-84
2022/06/08 13:26:46;;;;;;;10.23;7.60;;;4.40;99.90;;;;;;5088296;28;20510;-82
2022/06/08 13:29:16;;;;;;;8.98;7.05;;;4.30;99.90;;;;;;5091777;28;20364;-81
2022/06/08 13:31:44;;;;;;;9.50;6.70;;;4.30;99.90;;;;;;5092650;28;20377;-80
2022/06/08 13:34:13;;;;;;;9.30;7.03;;;4.30;99.90;;;;;;5092341;28;20396;-85
2022/06/08 13:36:47;;;;;;;9.63;6.60;;;4.30;99.90;;;;;;5092207;28;20932;-85
2022/06/08 13:39:29;;;;;;;8.50;6.17;;;4.30;99.90;;;;;;5092914;28;20852;-85
2022/06/08 13:42:07;;;;;;;9.13;6.68;;;4.20;99.90;;;;;;5092738;28;20383;-81